createdAt,value
2022-10-12T00:01:15.623Z,34.63
2022-10-12T00:03:41.894Z,33.70
2022-10-12T00:06:12.042Z,34.20
2022-10-12T00:08:40.552Z,33.93
2022-10-12T00:11:10.198Z,34.53
2022-10-12T00:13:36.618Z,32.97
2022-10-12T00:16:05.370Z,34.27
2022-10-12T00:18:33.055Z,33.60
2022-10-12T00:21:10.856Z,33.17
2022-10-12T00:23:37.958Z,33.30
2022-10-12T00:26:06.682Z,33.73
2022-10-12T00:28:34.099Z,35.80
2022-10-12T00:31:01.482Z,35.10
2022-10-12T00:33:28.597Z,34.23
2022-10-12T00:35:54.904Z,33.40
2022-10-12T00:38:22.182Z,32.27
2022-10-12T00:40:48.770Z,33.27
2022-10-12T00:43:44.988Z,34.37
2022-10-12T00:46:19.902Z,33.23
2022-10-12T00:48:51.932Z,32.83
2022-10-12T00:51:19.443Z,31.60
2022-10-12T00:53:51.449Z,32.53
2022-10-12T00:56:21.779Z,32.60
2022-10-12T00:58:49.452Z,32.97
2022-10-12T01:01:16.906Z,32.37
2022-10-12T01:03:43.739Z,33.60
2022-10-12T01:06:10.535Z,33.67
2022-10-12T01:08:37.447Z,30.33
2022-10-12T01:11:04.103Z,29.43
2022-10-12T01:13:31.780Z,30.67
2022-10-12T01:16:21.788Z,30.47
2022-10-12T01:19:15.929Z,28.93
2022-10-12T01:21:50.594Z,27.87
2022-10-12T01:24:31.969Z,27.57
2022-10-12T01:27:23.556Z,29.77
2022-10-12T01:29:58.804Z,26.60
2022-10-12T01:32:34.084Z,26.47
2022-10-12T01:35:41.286Z,26.50
2022-10-12T01:38:15.336Z,26.83
2022-10-12T01:40:47.145Z,25.57
2022-10-12T01:43:17.379Z,25.20
2022-10-12T01:45:43.943Z,24.93
2022-10-12T01:48:10.234Z,24.47
2022-10-12T01:50:49.168Z,26.27
2022-10-12T01:53:35.752Z,25.03
2022-10-12T01:56:22.069Z,25.30
2022-10-12T01:58:57.576Z,26.40
2022-10-12T02:02:02.619Z,28.20
2022-10-12T02:04:34.241Z,26.27
2022-10-12T02:07:06.029Z,27.87
2022-10-12T02:09:35.129Z,26.63
2022-10-12T02:12:07.431Z,26.23
2022-10-12T02:14:41.319Z,26.97
2022-10-12T02:17:12.815Z,29.17
2022-10-12T02:19:43.934Z,28.30
2022-10-12T02:22:12.467Z,31.23
2022-10-12T02:24:43.651Z,27.97
2022-10-12T02:27:13.660Z,28.23
2022-10-12T02:29:42.512Z,27.90
2022-10-12T02:32:27.199Z,24.77
2022-10-12T02:35:07.489Z,24.13
2022-10-12T02:37:44.473Z,25.23
2022-10-12T02:40:34.325Z,25.17
2022-10-12T02:43:10.801Z,24.47
2022-10-12T02:45:44.350Z,25.00
2022-10-12T02:48:15.942Z,26.03
2022-10-12T02:50:43.070Z,25.50
2022-10-12T02:53:12.222Z,24.97
2022-10-12T02:55:50.525Z,23.47
2022-10-12T02:58:17.385Z,23.80
2022-10-12T03:00:44.476Z,23.23
2022-10-12T03:03:10.799Z,22.30
2022-10-12T03:05:37.202Z,23.40
2022-10-12T03:08:04.049Z,22.63
2022-10-12T03:10:30.666Z,21.20
2022-10-12T03:12:56.884Z,22.07
2022-10-12T03:15:23.330Z,23.33
2022-10-12T03:17:49.713Z,22.43
2022-10-12T03:20:15.937Z,23.00
2022-10-12T03:22:42.402Z,21.97
2022-10-12T03:25:08.690Z,21.77
2022-10-12T03:27:35.424Z,20.30
2022-10-12T03:30:01.995Z,20.40
2022-10-12T03:32:29.067Z,21.70
2022-10-12T03:34:56.013Z,23.37
2022-10-12T03:37:24.510Z,24.53
2022-10-12T03:39:50.682Z,24.67
2022-10-12T03:42:17.063Z,22.90
2022-10-12T03:44:43.276Z,24.80
2022-10-12T03:47:09.684Z,24.37
2022-10-12T03:49:35.880Z,24.43
2022-10-12T03:52:02.365Z,25.13
2022-10-12T03:54:28.867Z,25.77
2022-10-12T03:56:55.274Z,24.37
2022-10-12T03:59:21.419Z,26.27
2022-10-12T04:01:47.872Z,23.90
2022-10-12T04:04:14.331Z,23.77
2022-10-12T04:06:40.454Z,24.47
2022-10-12T04:09:06.860Z,26.00
2022-10-12T04:11:33.100Z,28.40
2022-10-12T04:13:59.915Z,27.73
2022-10-12T04:16:28.831Z,28.60
2022-10-12T04:18:57.306Z,26.40
2022-10-12T04:21:24.090Z,26.13
2022-10-12T04:23:50.597Z,27.07
2022-10-12T04:26:16.752Z,25.53
2022-10-12T04:28:42.950Z,25.63
2022-10-12T04:31:09.412Z,25.43
2022-10-12T04:33:35.623Z,24.13
2022-10-12T04:36:02.025Z,25.30
2022-10-12T04:38:28.330Z,25.43
2022-10-12T04:40:54.696Z,24.80
2022-10-12T04:43:20.810Z,23.77
2022-10-12T04:45:54.759Z,26.40
2022-10-12T04:48:21.692Z,24.97
2022-10-12T04:50:48.155Z,23.43
2022-10-12T04:53:14.513Z,24.70
2022-10-12T04:55:41.102Z,23.70
2022-10-12T04:58:07.392Z,22.83
2022-10-12T05:00:34.028Z,25.10
2022-10-12T05:03:00.357Z,26.07
2022-10-12T05:05:26.556Z,23.67
2022-10-12T05:07:53.025Z,22.63
2022-10-12T05:10:19.290Z,21.77
2022-10-12T05:12:45.813Z,21.43
2022-10-12T05:15:12.018Z,20.97
2022-10-12T05:17:39.021Z,20.30
2022-10-12T05:20:06.328Z,20.97
2022-10-12T05:22:32.688Z,20.77
2022-10-12T05:24:59.091Z,20.27
2022-10-12T05:27:25.463Z,20.47
2022-10-12T05:29:52.013Z,20.47
2022-10-12T05:32:18.510Z,20.37
2022-10-12T05:34:44.741Z,18.97
2022-10-12T05:37:11.181Z,19.10
2022-10-12T05:39:37.399Z,19.40
2022-10-12T05:42:04.435Z,18.43
2022-10-12T05:44:30.627Z,19.43
2022-10-12T05:46:57.145Z,19.03
2022-10-12T05:49:23.455Z,19.57
2022-10-12T05:51:50.053Z,18.93
2022-10-12T05:54:16.229Z,19.43
2022-10-12T05:56:42.731Z,20.17
2022-10-12T05:59:10.826Z,20.13
2022-10-12T06:01:37.398Z,20.97
2022-10-12T06:04:03.945Z,20.27
2022-10-12T06:06:30.549Z,20.43
2022-10-12T06:08:56.735Z,19.93
2022-10-12T06:11:23.302Z,19.33
2022-10-12T06:13:49.996Z,18.17
2022-10-12T06:16:16.417Z,21.17
2022-10-12T06:18:42.555Z,21.67
2022-10-12T06:21:28.852Z,21.37
2022-10-12T06:23:55.343Z,20.23
2022-10-12T06:26:24.300Z,20.60
2022-10-12T06:28:50.492Z,22.50
2022-10-12T06:31:16.972Z,24.00
2022-10-12T06:33:43.203Z,23.17
2022-10-12T06:36:09.761Z,25.37
2022-10-12T06:38:36.189Z,26.70
2022-10-12T06:41:02.701Z,26.00
2022-10-12T06:43:29.131Z,25.53
2022-10-12T06:46:00.319Z,29.47
2022-10-12T06:48:26.639Z,30.33
2022-10-12T06:50:55.755Z,30.83
2022-10-12T06:53:22.725Z,30.17
2022-10-12T06:55:49.246Z,29.43
2022-10-12T06:58:15.532Z,28.20
2022-10-12T07:00:42.147Z,31.20
2022-10-12T07:03:11.966Z,35.87
2022-10-12T07:05:38.378Z,42.27
2022-10-12T07:08:04.999Z,46.70
2022-10-12T07:10:31.463Z,44.80
2022-10-12T07:12:57.647Z,45.70
2022-10-12T07:15:24.104Z,43.30
2022-10-12T07:17:50.340Z,36.73
2022-10-12T07:20:16.685Z,33.03
2022-10-12T07:22:44.273Z,37.20
2022-10-12T07:25:10.921Z,34.87
2022-10-12T07:27:37.511Z,36.37
2022-10-12T07:30:04.688Z,31.33
2022-10-12T07:32:30.880Z,25.17
2022-10-12T07:34:57.241Z,24.33
2022-10-12T07:37:23.541Z,21.13
2022-10-12T07:39:49.712Z,21.63
2022-10-12T07:42:19.255Z,19.83
2022-10-12T07:44:48.676Z,20.93
2022-10-12T07:47:17.122Z,19.03
2022-10-12T07:49:43.479Z,17.17
2022-10-12T07:52:10.122Z,16.30
2022-10-12T07:54:36.344Z,15.57
2022-10-12T07:57:02.779Z,16.00
2022-10-12T07:59:29.010Z,17.77
2022-10-12T08:01:55.540Z,15.27
2022-10-12T08:04:21.833Z,15.70
2022-10-12T08:06:48.240Z,16.20
2022-10-12T08:09:14.420Z,16.40
2022-10-12T08:11:41.391Z,11.83
2022-10-12T08:14:17.121Z,9.67
2022-10-12T08:16:44.376Z,9.47
2022-10-12T08:19:11.479Z,9.10
2022-10-12T08:21:39.325Z,9.47
2022-10-12T08:24:06.015Z,8.93
2022-10-12T08:26:32.893Z,7.90
2022-10-12T08:29:00.974Z,8.53
2022-10-12T08:31:27.581Z,8.80
2022-10-12T08:33:56.252Z,8.30
2022-10-12T08:36:22.783Z,8.63
2022-10-12T08:38:53.435Z,8.20
2022-10-12T08:41:35.723Z,7.57
2022-10-12T08:44:07.802Z,7.33
2022-10-12T08:46:34.552Z,6.97
2022-10-12T08:49:05.471Z,7.23
2022-10-12T08:51:39.645Z,4.50
2022-10-12T08:54:13.951Z,5.47
2022-10-12T08:56:40.827Z,5.83
2022-10-12T08:59:16.267Z,5.50
2022-10-12T09:02:13.205Z,5.00
2022-10-12T09:04:53.313Z,5.90
2022-10-12T09:07:25.085Z,6.17
2022-10-12T09:10:10.352Z,5.00
2022-10-12T09:12:52.119Z,6.47
2022-10-12T09:15:26.776Z,5.23
2022-10-12T09:17:55.614Z,5.10
2022-10-12T09:20:21.756Z,5.77
2022-10-12T09:22:54.669Z,5.07
2022-10-12T09:25:26.939Z,4.43
2022-10-12T09:27:54.284Z,5.27
2022-10-12T09:30:20.796Z,4.37
2022-10-12T09:33:12.309Z,5.27
2022-10-12T09:35:45.773Z,3.90
2022-10-12T09:38:12.684Z,3.87
2022-10-12T09:40:39.804Z,3.60
2022-10-12T09:43:07.026Z,3.27
2022-10-12T09:45:35.150Z,3.80
2022-10-12T09:48:08.715Z,3.87
2022-10-12T09:50:55.193Z,3.17
2022-10-12T09:53:38.184Z,3.70
2022-10-12T09:56:10.727Z,3.93
2022-10-12T09:58:49.209Z,3.50
2022-10-12T10:01:30.448Z,3.93
2022-10-12T10:04:14.248Z,3.90
2022-10-12T10:06:45.906Z,2.60
2022-10-12T10:09:31.946Z,2.40
2022-10-12T10:12:22.015Z,2.53
2022-10-12T10:14:50.278Z,3.07
2022-10-12T10:17:33.254Z,3.00
2022-10-12T10:20:04.301Z,2.63
2022-10-12T10:22:31.587Z,3.40
2022-10-12T10:25:00.729Z,2.30
2022-10-12T10:27:37.066Z,2.63
2022-10-12T10:30:40.587Z,2.67
2022-10-12T10:33:16.692Z,2.00
2022-10-12T10:36:18.010Z,2.70
2022-10-12T10:38:56.758Z,2.80
2022-10-12T10:41:36.579Z,3.10
2022-10-12T10:44:04.896Z,5.20
2022-10-12T10:46:34.160Z,2.37
2022-10-12T10:49:06.444Z,2.13
2022-10-12T10:51:46.225Z,1.90
2022-10-12T10:54:23.499Z,2.50
2022-10-12T10:56:52.980Z,2.70
2022-10-12T10:59:28.671Z,2.50
2022-10-12T11:02:01.170Z,2.13
2022-10-12T11:04:34.439Z,2.13
2022-10-12T11:07:16.293Z,2.43
2022-10-12T11:09:47.168Z,2.47
2022-10-12T11:12:21.973Z,1.77
2022-10-12T11:14:51.741Z,2.20
2022-10-12T11:17:37.561Z,2.40
2022-10-12T11:20:22.563Z,2.13
2022-10-12T11:22:58.005Z,2.17
2022-10-12T11:25:28.756Z,2.10
2022-10-12T11:27:55.248Z,1.93
2022-10-12T11:30:24.908Z,1.87
2022-10-12T11:32:59.499Z,2.00
2022-10-12T11:35:31.821Z,3.60
2022-10-12T11:38:04.705Z,1.97
2022-10-12T11:41:02.494Z,2.67
2022-10-12T11:43:36.077Z,2.00
2022-10-12T11:46:09.585Z,2.00
2022-10-12T11:48:44.594Z,2.07
2022-10-12T11:51:12.097Z,3.50
2022-10-12T11:53:50.912Z,2.43
2022-10-12T11:56:25.172Z,2.07
2022-10-12T11:59:01.051Z,2.00
2022-10-12T12:02:01.165Z,2.90
2022-10-12T12:04:46.770Z,5.30
2022-10-12T12:07:22.613Z,2.70
2022-10-12T12:09:51.004Z,2.83
2022-10-12T12:12:27.069Z,2.40
2022-10-12T12:14:53.454Z,2.77
2022-10-12T12:17:19.728Z,2.47
2022-10-12T12:19:50.919Z,2.07
2022-10-12T12:22:22.996Z,2.30
2022-10-12T12:25:07.946Z,4.33
2022-10-12T12:27:51.183Z,2.23
2022-10-12T12:30:17.644Z,2.17
2022-10-12T12:33:05.334Z,2.80
2022-10-12T12:35:40.536Z,3.20
2022-10-12T12:38:12.677Z,2.77
2022-10-12T12:40:41.167Z,2.53
2022-10-12T12:43:21.250Z,2.50
2022-10-12T12:46:09.345Z,3.30
2022-10-12T12:48:38.531Z,2.13
2022-10-12T12:51:08.607Z,1.93
2022-10-12T12:53:44.435Z,2.47
2022-10-12T12:56:34.085Z,2.00
2022-10-12T12:59:21.770Z,1.87
2022-10-12T13:02:35.618Z,1.87
2022-10-12T13:05:39.591Z,1.90
2022-10-12T13:08:31.312Z,2.10
2022-10-12T13:11:00.420Z,1.77
2022-10-12T13:14:04.728Z,1.60
2022-10-12T13:19:43.728Z,3.20
2022-10-12T13:22:18.262Z,2.67
2022-10-12T13:24:49.684Z,2.07
2022-10-12T13:27:22.469Z,1.80
2022-10-12T13:29:59.714Z,1.60
2022-10-12T13:32:38.064Z,1.30
2022-10-12T13:35:13.769Z,2.73
2022-10-12T13:37:40.059Z,2.00
2022-10-12T13:40:31.029Z,1.57
2022-10-12T13:43:22.193Z,3.50
2022-10-12T13:45:49.042Z,3.53
2022-10-12T13:48:34.331Z,2.60
2022-10-12T13:51:21.938Z,2.40
2022-10-12T13:53:48.373Z,3.47
2022-10-12T13:56:19.019Z,5.13
2022-10-12T13:58:46.053Z,2.40
2022-10-12T14:01:13.153Z,2.30
2022-10-12T14:03:42.693Z,3.63
2022-10-12T14:06:38.304Z,3.67
2022-10-12T14:09:13.750Z,14.87
2022-10-12T14:11:41.658Z,10.87
2022-10-12T14:14:35.689Z,5.83
2022-10-12T14:17:02.611Z,3.63
2022-10-12T14:19:46.133Z,2.47
2022-10-12T14:22:20.247Z,2.83
2022-10-12T14:24:47.232Z,2.20
2022-10-12T14:27:27.183Z,2.53
2022-10-12T14:30:06.527Z,4.30
2022-10-12T14:32:40.650Z,1.63
2022-10-12T14:35:10.229Z,1.73
2022-10-12T14:37:39.253Z,1.50
2022-10-12T14:40:38.856Z,2.03
2022-10-12T14:43:07.315Z,2.73
2022-10-12T14:45:34.779Z,3.27
2022-10-12T14:48:02.518Z,2.70
2022-10-12T14:50:31.178Z,2.70
2022-10-12T14:53:04.105Z,3.43
2022-10-12T14:55:33.090Z,4.53
2022-10-12T14:57:59.935Z,4.27
2022-10-12T15:00:26.240Z,4.00
2022-10-12T15:02:53.189Z,3.43
2022-10-12T15:05:23.234Z,3.27
2022-10-12T15:07:50.471Z,8.53
2022-10-12T15:10:19.106Z,33.23
2022-10-12T15:12:45.646Z,21.63
2022-10-12T15:15:38.409Z,14.47
2022-10-12T15:18:05.966Z,5.70
2022-10-12T15:20:32.765Z,5.07
2022-10-12T15:22:59.632Z,22.60
2022-10-12T15:25:34.604Z,38.77
2022-10-12T15:28:02.604Z,32.73
2022-10-12T15:30:29.098Z,38.47
2022-10-12T15:32:55.655Z,16.00
2022-10-12T15:35:25.063Z,12.43
2022-10-12T15:37:55.799Z,10.53
2022-10-12T15:40:22.378Z,10.50
2022-10-12T15:42:49.100Z,31.63
2022-10-12T15:45:22.415Z,34.03
2022-10-12T15:47:50.703Z,37.90
2022-10-12T15:50:19.676Z,43.93
2022-10-12T15:52:46.251Z,43.63
2022-10-12T15:55:21.613Z,29.17
2022-10-12T15:57:49.649Z,23.00
2022-10-12T16:00:17.843Z,26.93
2022-10-12T16:02:44.617Z,18.97
2022-10-12T16:05:25.012Z,11.80
2022-10-12T16:07:52.866Z,10.80
2022-10-12T16:10:22.099Z,25.67
2022-10-12T16:12:50.859Z,20.87
2022-10-12T16:15:23.323Z,15.40
2022-10-12T16:17:51.587Z,17.57
2022-10-12T16:20:18.180Z,12.27
2022-10-12T16:22:45.025Z,8.43
2022-10-12T16:25:13.381Z,5.47
2022-10-12T16:27:39.882Z,7.23
2022-10-12T16:30:07.684Z,7.50
2022-10-12T16:32:35.120Z,8.87
2022-10-12T16:35:09.122Z,8.97
2022-10-12T16:37:35.517Z,15.27
2022-10-12T16:40:04.940Z,18.03
2022-10-12T16:42:31.683Z,11.23
2022-10-12T16:44:58.355Z,7.00
2022-10-12T16:47:27.422Z,9.30
2022-10-12T16:49:53.936Z,9.20
2022-10-12T16:52:23.869Z,4.10
2022-10-12T16:54:55.106Z,4.13
2022-10-12T16:57:22.759Z,5.23
2022-10-12T16:59:50.252Z,4.80
2022-10-12T17:02:18.714Z,20.97
2022-10-12T17:04:46.241Z,24.37
2022-10-12T17:07:13.397Z,21.20
2022-10-12T17:09:39.972Z,31.37
2022-10-12T17:12:06.362Z,36.13
2022-10-12T17:14:32.894Z,32.47
2022-10-12T17:16:59.703Z,29.43
2022-10-12T17:19:31.796Z,41.93
2022-10-12T17:22:00.246Z,45.67
2022-10-12T17:24:29.184Z,30.40
2022-10-12T17:26:56.467Z,19.27
2022-10-12T17:29:25.359Z,10.43
2022-10-12T17:31:54.877Z,9.23
2022-10-12T17:34:50.724Z,10.63
2022-10-12T17:37:17.011Z,14.27
2022-10-12T17:39:47.671Z,17.70
2022-10-12T17:42:14.314Z,23.23
2022-10-12T17:44:42.042Z,17.30
2022-10-12T17:47:08.668Z,18.80
2022-10-12T17:49:35.120Z,20.63
2022-10-12T17:52:03.385Z,19.73
2022-10-12T17:54:29.855Z,17.30
2022-10-12T17:56:56.638Z,8.20
2022-10-12T17:59:23.806Z,7.77
2022-10-12T18:01:51.828Z,13.43
2022-10-12T18:04:19.715Z,21.03
2022-10-12T18:06:46.225Z,18.73
2022-10-12T18:09:12.943Z,49.63
2022-10-12T18:11:39.978Z,22.13
2022-10-12T18:14:08.736Z,17.47
2022-10-12T18:16:35.708Z,30.97
2022-10-12T18:19:07.605Z,19.30
2022-10-12T18:21:33.981Z,20.83
2022-10-12T18:24:05.597Z,13.00
2022-10-12T18:26:35.008Z,11.67
2022-10-12T18:29:01.714Z,14.83
2022-10-12T18:31:29.337Z,16.60
2022-10-12T18:33:57.548Z,21.07
2022-10-12T18:36:24.656Z,23.70
2022-10-12T18:38:52.247Z,20.10
2022-10-12T18:41:21.874Z,14.93
2022-10-12T18:43:54.686Z,14.27
2022-10-12T18:46:25.087Z,33.70
2022-10-12T18:48:52.519Z,32.03
2022-10-12T18:51:21.110Z,23.57
2022-10-12T18:53:47.936Z,28.60
2022-10-12T18:56:16.650Z,20.20
2022-10-12T18:58:43.269Z,15.43
2022-10-12T19:01:16.192Z,21.17
2022-10-12T19:03:46.906Z,20.77
2022-10-12T19:06:16.718Z,24.57
2022-10-12T19:08:43.653Z,22.93
2022-10-12T19:11:12.819Z,21.50
2022-10-12T19:13:41.784Z,18.80
2022-10-12T19:16:14.638Z,21.10
2022-10-12T19:18:42.387Z,23.37
2022-10-12T19:21:19.978Z,22.73
2022-10-12T19:23:46.675Z,24.93
2022-10-12T19:26:17.668Z,24.17
2022-10-12T19:28:45.499Z,24.70
2022-10-12T19:31:19.876Z,19.67
2022-10-12T19:33:46.993Z,20.73
2022-10-12T19:36:16.331Z,17.17
2022-10-12T19:38:45.311Z,16.73
2022-10-12T19:41:12.664Z,14.37
2022-10-12T19:43:39.840Z,10.93
2022-10-12T19:46:11.538Z,11.27
2022-10-12T19:48:41.348Z,12.20
2022-10-12T19:51:11.627Z,30.40
2022-10-12T19:53:39.798Z,8.33
2022-10-12T19:56:09.035Z,8.30
2022-10-12T19:58:35.956Z,9.07
2022-10-12T20:01:05.682Z,9.83
2022-10-12T20:03:34.268Z,7.17
2022-10-12T20:06:08.670Z,7.50
2022-10-12T20:08:38.260Z,7.27
2022-10-12T20:11:04.731Z,6.67
2022-10-12T20:13:31.746Z,8.57
2022-10-12T20:15:58.757Z,9.67
2022-10-12T20:18:26.575Z,15.77
2022-10-12T20:20:53.889Z,20.63
2022-10-12T20:23:21.447Z,22.23
2022-10-12T20:25:51.126Z,17.67
2022-10-12T20:28:18.993Z,13.43
2022-10-12T20:30:46.276Z,15.53
2022-10-12T20:33:13.562Z,14.43
2022-10-12T20:35:48.401Z,15.47
2022-10-12T20:38:16.505Z,16.73
2022-10-12T20:40:43.378Z,18.73
2022-10-12T20:43:10.079Z,19.40
2022-10-12T20:45:36.971Z,18.23
2022-10-12T20:48:04.251Z,16.63
2022-10-12T20:50:30.849Z,16.73
2022-10-12T20:52:57.577Z,18.43
2022-10-12T20:55:24.036Z,20.20
2022-10-12T20:57:50.504Z,21.90
2022-10-12T21:00:17.152Z,24.23
2022-10-12T21:02:43.579Z,24.70
2022-10-12T21:05:09.853Z,22.30
2022-10-12T21:07:36.578Z,22.63
2022-10-12T21:10:03.315Z,19.47
2022-10-12T21:12:30.623Z,21.27
2022-10-12T21:14:57.208Z,21.53
2022-10-12T21:17:23.446Z,28.90
2022-10-12T21:19:51.427Z,30.13
2022-10-12T21:22:18.196Z,24.83
2022-10-12T21:24:44.594Z,22.63
2022-10-12T21:27:10.838Z,20.67
2022-10-12T21:29:37.267Z,23.80
2022-10-12T21:32:03.798Z,22.00
2022-10-12T21:34:30.001Z,23.07
2022-10-12T21:36:56.459Z,23.87
2022-10-12T21:39:22.681Z,30.47
2022-10-12T21:41:48.798Z,36.83
2022-10-12T21:44:15.162Z,43.67
2022-10-12T21:46:41.906Z,34.40
2022-10-12T21:49:10.373Z,36.53
2022-10-12T21:51:38.012Z,36.40
2022-10-12T21:54:05.245Z,35.70
2022-10-12T21:56:34.462Z,34.37
2022-10-12T21:59:04.121Z,33.07
2022-10-12T22:01:36.249Z,31.27
2022-10-12T22:04:05.912Z,32.17
2022-10-12T22:06:33.395Z,32.30
2022-10-12T22:09:04.281Z,29.73
2022-10-12T22:11:32.712Z,26.33
2022-10-12T22:14:05.059Z,23.83
2022-10-12T22:16:34.615Z,25.13
2022-10-12T22:19:03.041Z,27.80
2022-10-12T22:21:33.471Z,27.07
2022-10-12T22:24:01.320Z,20.73
2022-10-12T22:26:28.356Z,21.43
2022-10-12T22:28:57.101Z,18.70
2022-10-12T22:31:24.254Z,18.70
2022-10-12T22:33:51.418Z,18.13
2022-10-12T22:36:17.732Z,17.30
2022-10-12T22:38:45.225Z,17.73
2022-10-12T22:41:14.481Z,18.37
2022-10-12T22:43:48.696Z,16.83
2022-10-12T22:46:15.886Z,21.50
2022-10-12T22:48:42.316Z,22.10
2022-10-12T22:51:13.668Z,21.63
2022-10-12T22:53:39.813Z,21.37
2022-10-12T22:56:14.379Z,19.93
2022-10-12T22:58:40.909Z,19.80
2022-10-12T23:01:09.973Z,20.87
2022-10-12T23:03:36.648Z,19.90
2022-10-12T23:06:10.592Z,21.03
2022-10-12T23:08:37.071Z,19.13
2022-10-12T23:11:06.435Z,17.93
2022-10-12T23:13:36.429Z,17.80
2022-10-12T23:16:07.177Z,16.53
2022-10-12T23:18:33.571Z,19.13
2022-10-12T23:21:03.202Z,18.27
2022-10-12T23:23:29.863Z,20.43
2022-10-12T23:26:05.157Z,17.70
2022-10-12T23:28:32.219Z,19.00
2022-10-12T23:30:58.639Z,19.13
2022-10-12T23:33:24.879Z,20.60
2022-10-12T23:35:59.258Z,23.87
2022-10-12T23:38:29.798Z,27.37
2022-10-12T23:40:56.558Z,35.23
2022-10-12T23:43:22.876Z,29.70
2022-10-12T23:45:49.485Z,28.97
2022-10-12T23:48:16.024Z,27.93
2022-10-12T23:50:46.272Z,29.53
2022-10-12T23:53:12.925Z,29.97
2022-10-12T23:55:39.410Z,27.47
2022-10-12T23:58:06.459Z,28.53
